sensor_id;sensor_type;location;lat;lon;timestamp;P1;durP1;ratioP1;P2;durP2;ratioP2
55539;SDS011;41384;51.418;7.286;2022-12-17T00:02:17;38.60;;;17.17;;
55539;SDS011;41384;51.418;7.286;2022-12-17T00:05:01;46.28;;;19.30;;
55539;SDS011;41384;51.418;7.286;2022-12-17T00:07:45;45.22;;;20.27;;
55539;SDS011;41384;51.418;7.286;2022-12-17T00:10:29;40.53;;;19.65;;
55539;SDS011;41384;51.418;7.286;2022-12-17T00:13:17;43.30;;;17.65;;
55539;SDS011;41384;51.418;7.286;2022-12-17T00:16:02;39.95;;;17.38;;
55539;SDS011;41384;51.418;7.286;2022-12-17T00:18:46;41.88;;;18.42;;
55539;SDS011;41384;51.418;7.286;2022-12-17T00:21:30;41.83;;;18.60;;
55539;SDS011;41384;51.418;7.286;2022-12-17T00:24:14;48.00;;;18.77;;
55539;SDS011;41384;51.418;7.286;2022-12-17T00:26:58;50.22;;;19.70;;
55539;SDS011;41384;51.418;7.286;2022-12-17T00:29:42;42.80;;;18.67;;
55539;SDS011;41384;51.418;7.286;2022-12-17T00:32:26;45.80;;;19.40;;
55539;SDS011;41384;51.418;7.286;2022-12-17T00:35:09;43.05;;;18.27;;
55539;SDS011;41384;51.418;7.286;2022-12-17T00:37:53;44.20;;;18.98;;
55539;SDS011;41384;51.418;7.286;2022-12-17T00:40:37;45.97;;;19.80;;
55539;SDS011;41384;51.418;7.286;2022-12-17T00:43:21;41.53;;;18.08;;
55539;SDS011;41384;51.418;7.286;2022-12-17T00:46:05;38.78;;;18.48;;
55539;SDS011;41384;51.418;7.286;2022-12-17T00:48:49;41.20;;;17.40;;
55539;SDS011;41384;51.418;7.286;2022-12-17T00:51:33;39.60;;;17.23;;
55539;SDS011;41384;51.418;7.286;2022-12-17T00:54:17;43.95;;;17.92;;
55539;SDS011;41384;51.418;7.286;2022-12-17T00:57:01;43.20;;;17.83;;
55539;SDS011;41384;51.418;7.286;2022-12-17T00:59:45;43.97;;;17.40;;
55539;SDS011;41384;51.418;7.286;2022-12-17T01:02:29;43.20;;;16.98;;
55539;SDS011;41384;51.418;7.286;2022-12-17T01:05:13;43.10;;;18.95;;
55539;SDS011;41384;51.418;7.286;2022-12-17T01:08:05;45.10;;;18.17;;
55539;SDS011;41384;51.418;7.286;2022-12-17T01:10:50;42.47;;;17.00;;
55539;SDS011;41384;51.418;7.286;2022-12-17T01:13:34;41.72;;;16.35;;
55539;SDS011;41384;51.418;7.286;2022-12-17T01:16:18;44.50;;;18.30;;
55539;SDS011;41384;51.418;7.286;2022-12-17T01:19:02;40.42;;;18.60;;
55539;SDS011;41384;51.418;7.286;2022-12-17T01:21:46;39.30;;;17.92;;
55539;SDS011;41384;51.418;7.286;2022-12-17T01:24:30;39.28;;;17.02;;
55539;SDS011;41384;51.418;7.286;2022-12-17T01:27:14;42.03;;;16.85;;
55539;SDS011;41384;51.418;7.286;2022-12-17T01:29:58;44.35;;;17.17;;
55539;SDS011;41384;51.418;7.286;2022-12-17T01:32:42;37.40;;;17.58;;
55539;SDS011;41384;51.418;7.286;2022-12-17T01:35:26;37.20;;;17.02;;
55539;SDS011;41384;51.418;7.286;2022-12-17T01:38:11;36.53;;;16.13;;
55539;SDS011;41384;51.418;7.286;2022-12-17T01:40:55;35.95;;;17.70;;
55539;SDS011;41384;51.418;7.286;2022-12-17T01:43:53;48.97;;;19.08;;
55539;SDS011;41384;51.418;7.286;2022-12-17T01:46:38;42.67;;;18.02;;
55539;SDS011;41384;51.418;7.286;2022-12-17T01:49:27;50.40;;;18.65;;
55539;SDS011;41384;51.418;7.286;2022-12-17T01:52:12;37.42;;;17.52;;
55539;SDS011;41384;51.418;7.286;2022-12-17T01:54:58;44.40;;;17.95;;
55539;SDS011;41384;51.418;7.286;2022-12-17T01:57:43;40.40;;;16.90;;
55539;SDS011;41384;51.418;7.286;2022-12-17T02:00:27;40.60;;;16.92;;
55539;SDS011;41384;51.418;7.286;2022-12-17T02:03:14;36.95;;;16.90;;
55539;SDS011;41384;51.418;7.286;2022-12-17T02:06:11;41.13;;;17.35;;
55539;SDS011;41384;51.418;7.286;2022-12-17T02:17:57;38.60;;;16.63;;
55539;SDS011;41384;51.418;7.286;2022-12-17T02:20:45;39.75;;;17.10;;
55539;SDS011;41384;51.418;7.286;2022-12-17T02:26:41;34.78;;;15.65;;
55539;SDS011;41384;51.418;7.286;2022-12-17T02:29:28;37.78;;;16.80;;
55539;SDS011;41384;51.418;7.286;2022-12-17T02:32:17;36.65;;;16.67;;
55539;SDS011;41384;51.418;7.286;2022-12-17T02:35:02;38.97;;;16.23;;
55539;SDS011;41384;51.418;7.286;2022-12-17T02:37:50;35.90;;;16.77;;
55539;SDS011;41384;51.418;7.286;2022-12-17T02:40:35;31.38;;;14.18;;
55539;SDS011;41384;51.418;7.286;2022-12-17T02:43:20;34.60;;;14.32;;
55539;SDS011;41384;51.418;7.286;2022-12-17T02:46:06;33.67;;;14.40;;
55539;SDS011;41384;51.418;7.286;2022-12-17T02:48:51;36.50;;;14.63;;
55539;SDS011;41384;51.418;7.286;2022-12-17T02:51:35;34.97;;;14.07;;
55539;SDS011;41384;51.418;7.286;2022-12-17T02:54:19;31.10;;;13.60;;
55539;SDS011;41384;51.418;7.286;2022-12-17T02:57:03;29.20;;;13.93;;
55539;SDS011;41384;51.418;7.286;2022-12-17T02:59:47;25.65;;;12.25;;
55539;SDS011;41384;51.418;7.286;2022-12-17T03:02:31;26.73;;;12.32;;
55539;SDS011;41384;51.418;7.286;2022-12-17T03:05:31;26.52;;;13.15;;
55539;SDS011;41384;51.418;7.286;2022-12-17T03:08:15;28.52;;;12.30;;
55539;SDS011;41384;51.418;7.286;2022-12-17T03:10:59;33.40;;;13.65;;
55539;SDS011;41384;51.418;7.286;2022-12-17T03:13:43;29.17;;;12.27;;
55539;SDS011;41384;51.418;7.286;2022-12-17T03:16:27;33.97;;;14.35;;
55539;SDS011;41384;51.418;7.286;2022-12-17T03:19:11;26.30;;;11.82;;
55539;SDS011;41384;51.418;7.286;2022-12-17T03:21:55;28.23;;;13.23;;
55539;SDS011;41384;51.418;7.286;2022-12-17T03:24:39;25.15;;;10.77;;
55539;SDS011;41384;51.418;7.286;2022-12-17T03:27:23;24.90;;;10.80;;
55539;SDS011;41384;51.418;7.286;2022-12-17T03:30:07;23.33;;;10.95;;
55539;SDS011;41384;51.418;7.286;2022-12-17T03:32:52;24.27;;;10.35;;
55539;SDS011;41384;51.418;7.286;2022-12-17T03:35:36;26.85;;;11.43;;
55539;SDS011;41384;51.418;7.286;2022-12-17T03:38:20;21.38;;;10.75;;
55539;SDS011;41384;51.418;7.286;2022-12-17T03:41:04;23.23;;;9.88;;
55539;SDS011;41384;51.418;7.286;2022-12-17T03:43:48;26.58;;;10.50;;
55539;SDS011;41384;51.418;7.286;2022-12-17T03:46:32;25.77;;;9.93;;
55539;SDS011;41384;51.418;7.286;2022-12-17T03:49:16;22.60;;;10.60;;
55539;SDS011;41384;51.418;7.286;2022-12-17T03:52:00;26.30;;;10.57;;
55539;SDS011;41384;51.418;7.286;2022-12-17T03:54:44;23.50;;;9.23;;
55539;SDS011;41384;51.418;7.286;2022-12-17T03:57:28;22.75;;;9.93;;
55539;SDS011;41384;51.418;7.286;2022-12-17T04:00:12;28.50;;;10.40;;
55539;SDS011;41384;51.418;7.286;2022-12-17T04:02:56;23.85;;;9.90;;
55539;SDS011;41384;51.418;7.286;2022-12-17T04:05:40;25.45;;;10.55;;
55539;SDS011;41384;51.418;7.286;2022-12-17T04:08:24;25.13;;;10.05;;
55539;SDS011;41384;51.418;7.286;2022-12-17T04:11:08;25.42;;;11.75;;
55539;SDS011;41384;51.418;7.286;2022-12-17T04:13:52;25.33;;;9.38;;
55539;SDS011;41384;51.418;7.286;2022-12-17T04:16:36;27.42;;;10.27;;
55539;SDS011;41384;51.418;7.286;2022-12-17T04:19:20;27.00;;;11.07;;
55539;SDS011;41384;51.418;7.286;2022-12-17T04:22:04;24.92;;;10.88;;
55539;SDS011;41384;51.418;7.286;2022-12-17T04:24:48;28.17;;;9.55;;
55539;SDS011;41384;51.418;7.286;2022-12-17T04:27:32;24.08;;;9.85;;
55539;SDS011;41384;51.418;7.286;2022-12-17T04:30:24;24.25;;;9.75;;
55539;SDS011;41384;51.418;7.286;2022-12-17T04:35:51;26.85;;;9.68;;
55539;SDS011;41384;51.418;7.286;2022-12-17T04:38:35;24.10;;;9.70;;
55539;SDS011;41384;51.418;7.286;2022-12-17T04:41:19;32.15;;;11.75;;
55539;SDS011;41384;51.418;7.286;2022-12-17T04:44:03;30.98;;;10.55;;
55539;SDS011;41384;51.418;7.286;2022-12-17T04:46:47;27.17;;;10.50;;
55539;SDS011;41384;51.418;7.286;2022-12-17T04:49:31;25.27;;;10.20;;
55539;SDS011;41384;51.418;7.286;2022-12-17T04:52:15;23.40;;;10.20;;
55539;SDS011;41384;51.418;7.286;2022-12-17T04:54:59;24.17;;;9.52;;
55539;SDS011;41384;51.418;7.286;2022-12-17T04:57:43;22.40;;;10.38;;
55539;SDS011;41384;51.418;7.286;2022-12-17T05:00:27;27.42;;;9.15;;
55539;SDS011;41384;51.418;7.286;2022-12-17T05:03:13;25.38;;;10.23;;
55539;SDS011;41384;51.418;7.286;2022-12-17T05:05:58;28.38;;;10.65;;
55539;SDS011;41384;51.418;7.286;2022-12-17T05:08:42;26.65;;;9.80;;
55539;SDS011;41384;51.418;7.286;2022-12-17T05:11:26;25.98;;;10.15;;
55539;SDS011;41384;51.418;7.286;2022-12-17T05:14:10;29.92;;;10.63;;
55539;SDS011;41384;51.418;7.286;2022-12-17T05:16:54;21.88;;;9.68;;
55539;SDS011;41384;51.418;7.286;2022-12-17T05:19:38;23.77;;;9.88;;
55539;SDS011;41384;51.418;7.286;2022-12-17T05:22:22;22.67;;;10.02;;
55539;SDS011;41384;51.418;7.286;2022-12-17T05:25:07;23.23;;;9.45;;
55539;SDS011;41384;51.418;7.286;2022-12-17T05:27:51;27.50;;;10.30;;
55539;SDS011;41384;51.418;7.286;2022-12-17T05:30:35;27.73;;;10.15;;
55539;SDS011;41384;51.418;7.286;2022-12-17T05:33:19;22.58;;;9.18;;
55539;SDS011;41384;51.418;7.286;2022-12-17T05:36:02;22.88;;;8.57;;
55539;SDS011;41384;51.418;7.286;2022-12-17T05:38:47;22.67;;;9.77;;
55539;SDS011;41384;51.418;7.286;2022-12-17T05:41:31;20.98;;;9.00;;
55539;SDS011;41384;51.418;7.286;2022-12-17T05:44:15;25.30;;;9.25;;
55539;SDS011;41384;51.418;7.286;2022-12-17T05:46:59;17.30;;;8.23;;
55539;SDS011;41384;51.418;7.286;2022-12-17T05:49:43;20.70;;;8.52;;
55539;SDS011;41384;51.418;7.286;2022-12-17T05:52:27;20.38;;;7.93;;
55539;SDS011;41384;51.418;7.286;2022-12-17T05:55:12;19.60;;;8.00;;
55539;SDS011;41384;51.418;7.286;2022-12-17T06:00:47;18.35;;;8.15;;
55539;SDS011;41384;51.418;7.286;2022-12-17T06:03:31;19.67;;;8.00;;
55539;SDS011;41384;51.418;7.286;2022-12-17T06:06:15;21.02;;;8.48;;
55539;SDS011;41384;51.418;7.286;2022-12-17T06:08:59;22.75;;;9.38;;
55539;SDS011;41384;51.418;7.286;2022-12-17T06:11:43;20.33;;;8.32;;
55539;SDS011;41384;51.418;7.286;2022-12-17T06:14:27;23.95;;;9.57;;
55539;SDS011;41384;51.418;7.286;2022-12-17T06:17:11;21.38;;;9.18;;
55539;SDS011;41384;51.418;7.286;2022-12-17T06:19:55;21.08;;;7.90;;
55539;SDS011;41384;51.418;7.286;2022-12-17T06:22:39;23.35;;;9.30;;
55539;SDS011;41384;51.418;7.286;2022-12-17T06:25:23;21.33;;;8.93;;
55539;SDS011;41384;51.418;7.286;2022-12-17T06:28:07;20.50;;;7.85;;
55539;SDS011;41384;51.418;7.286;2022-12-17T06:30:52;18.00;;;8.80;;
55539;SDS011;41384;51.418;7.286;2022-12-17T06:33:37;21.80;;;8.27;;
55539;SDS011;41384;51.418;7.286;2022-12-17T06:36:22;19.77;;;9.25;;
55539;SDS011;41384;51.418;7.286;2022-12-17T06:39:06;23.27;;;8.93;;
55539;SDS011;41384;51.418;7.286;2022-12-17T06:41:50;23.33;;;8.43;;
55539;SDS011;41384;51.418;7.286;2022-12-17T06:44:34;22.45;;;8.90;;
55539;SDS011;41384;51.418;7.286;2022-12-17T06:47:18;18.77;;;8.57;;
55539;SDS011;41384;51.418;7.286;2022-12-17T06:50:02;20.45;;;8.40;;
55539;SDS011;41384;51.418;7.286;2022-12-17T06:52:47;19.63;;;8.27;;
55539;SDS011;41384;51.418;7.286;2022-12-17T06:55:31;18.73;;;9.05;;
55539;SDS011;41384;51.418;7.286;2022-12-17T06:58:14;25.38;;;9.70;;
55539;SDS011;41384;51.418;7.286;2022-12-17T07:00:58;20.23;;;8.93;;
55539;SDS011;41384;51.418;7.286;2022-12-17T07:03:42;20.02;;;8.57;;
55539;SDS011;41384;51.418;7.286;2022-12-17T07:06:26;21.92;;;9.02;;
55539;SDS011;41384;51.418;7.286;2022-12-17T07:09:10;22.25;;;8.23;;
55539;SDS011;41384;51.418;7.286;2022-12-17T07:11:54;23.75;;;8.88;;
55539;SDS011;41384;51.418;7.286;2022-12-17T07:14:38;19.30;;;8.23;;
55539;SDS011;41384;51.418;7.286;2022-12-17T07:17:22;19.58;;;8.98;;
55539;SDS011;41384;51.418;7.286;2022-12-17T07:20:06;19.60;;;9.25;;
55539;SDS011;41384;51.418;7.286;2022-12-17T07:22:54;25.60;;;10.00;;
55539;SDS011;41384;51.418;7.286;2022-12-17T07:25:39;19.10;;;9.38;;
55539;SDS011;41384;51.418;7.286;2022-12-17T07:28:23;21.90;;;8.38;;
55539;SDS011;41384;51.418;7.286;2022-12-17T07:31:07;26.40;;;9.88;;
55539;SDS011;41384;51.418;7.286;2022-12-17T07:33:51;19.90;;;8.50;;
55539;SDS011;41384;51.418;7.286;2022-12-17T07:36:35;22.38;;;9.40;;
55539;SDS011;41384;51.418;7.286;2022-12-17T07:39:19;19.45;;;7.97;;
55539;SDS011;41384;51.418;7.286;2022-12-17T07:42:04;20.05;;;9.52;;
55539;SDS011;41384;51.418;7.286;2022-12-17T07:44:48;22.23;;;8.65;;
55539;SDS011;41384;51.418;7.286;2022-12-17T07:47:32;22.73;;;8.60;;
55539;SDS011;41384;51.418;7.286;2022-12-17T07:50:16;23.85;;;9.60;;
55539;SDS011;41384;51.418;7.286;2022-12-17T07:53:00;24.90;;;8.98;;
55539;SDS011;41384;51.418;7.286;2022-12-17T07:55:45;24.83;;;9.45;;
55539;SDS011;41384;51.418;7.286;2022-12-17T07:58:29;22.33;;;10.10;;
55539;SDS011;41384;51.418;7.286;2022-12-17T08:01:14;25.30;;;9.65;;
55539;SDS011;41384;51.418;7.286;2022-12-17T08:03:58;19.58;;;9.02;;
55539;SDS011;41384;51.418;7.286;2022-12-17T08:06:41;18.75;;;9.02;;
55539;SDS011;41384;51.418;7.286;2022-12-17T08:09:26;20.67;;;9.38;;
55539;SDS011;41384;51.418;7.286;2022-12-17T08:12:10;19.98;;;8.35;;
55539;SDS011;41384;51.418;7.286;2022-12-17T08:14:54;20.70;;;9.00;;
55539;SDS011;41384;51.418;7.286;2022-12-17T08:17:38;19.58;;;9.15;;
55539;SDS011;41384;51.418;7.286;2022-12-17T08:20:22;21.08;;;9.02;;
55539;SDS011;41384;51.418;7.286;2022-12-17T08:23:06;21.90;;;9.23;;
55539;SDS011;41384;51.418;7.286;2022-12-17T08:25:49;17.88;;;8.60;;
55539;SDS011;41384;51.418;7.286;2022-12-17T08:28:33;16.13;;;8.15;;
55539;SDS011;41384;51.418;7.286;2022-12-17T08:31:17;17.13;;;8.60;;
55539;SDS011;41384;51.418;7.286;2022-12-17T08:34:02;18.98;;;9.45;;
55539;SDS011;41384;51.418;7.286;2022-12-17T08:36:46;20.50;;;9.45;;
55539;SDS011;41384;51.418;7.286;2022-12-17T08:39:30;20.65;;;8.52;;
55539;SDS011;41384;51.418;7.286;2022-12-17T08:42:14;19.45;;;8.88;;
55539;SDS011;41384;51.418;7.286;2022-12-17T08:44:58;20.55;;;9.40;;
55539;SDS011;41384;51.418;7.286;2022-12-17T08:47:42;17.73;;;8.50;;
55539;SDS011;41384;51.418;7.286;2022-12-17T08:50:26;22.83;;;9.25;;
55539;SDS011;41384;51.418;7.286;2022-12-17T08:53:10;23.17;;;9.82;;
55539;SDS011;41384;51.418;7.286;2022-12-17T08:55:54;22.05;;;9.10;;
55539;SDS011;41384;51.418;7.286;2022-12-17T08:58:38;26.80;;;10.02;;
55539;SDS011;41384;51.418;7.286;2022-12-17T09:01:22;20.42;;;11.23;;
55539;SDS011;41384;51.418;7.286;2022-12-17T09:04:06;22.27;;;9.98;;
55539;SDS011;41384;51.418;7.286;2022-12-17T09:06:50;21.08;;;9.80;;
55539;SDS011;41384;51.418;7.286;2022-12-17T09:09:34;19.73;;;9.70;;
55539;SDS011;41384;51.418;7.286;2022-12-17T09:12:18;21.05;;;9.43;;
55539;SDS011;41384;51.418;7.286;2022-12-17T09:15:02;22.50;;;9.48;;
55539;SDS011;41384;51.418;7.286;2022-12-17T09:17:47;18.63;;;8.93;;
55539;SDS011;41384;51.418;7.286;2022-12-17T09:20:31;22.70;;;10.15;;
55539;SDS011;41384;51.418;7.286;2022-12-17T09:23:15;18.40;;;9.30;;
55539;SDS011;41384;51.418;7.286;2022-12-17T09:26:00;21.05;;;9.93;;
55539;SDS011;41384;51.418;7.286;2022-12-17T09:28:44;20.33;;;10.43;;
55539;SDS011;41384;51.418;7.286;2022-12-17T09:31:31;17.88;;;9.07;;
55539;SDS011;41384;51.418;7.286;2022-12-17T09:34:15;18.52;;;10.00;;
55539;SDS011;41384;51.418;7.286;2022-12-17T09:36:59;23.45;;;9.88;;
55539;SDS011;41384;51.418;7.286;2022-12-17T09:39:43;20.17;;;9.20;;
55539;SDS011;41384;51.418;7.286;2022-12-17T09:42:30;19.15;;;10.10;;
55539;SDS011;41384;51.418;7.286;2022-12-17T09:51:32;19.63;;;10.15;;
55539;SDS011;41384;51.418;7.286;2022-12-17T09:57:17;22.35;;;10.40;;
55539;SDS011;41384;51.418;7.286;2022-12-17T10:00:15;18.88;;;9.88;;
55539;SDS011;41384;51.418;7.286;2022-12-17T10:03:01;17.63;;;9.48;;
55539;SDS011;41384;51.418;7.286;2022-12-17T10:05:46;20.90;;;10.10;;
55539;SDS011;41384;51.418;7.286;2022-12-17T10:08:32;25.60;;;11.13;;
55539;SDS011;41384;51.418;7.286;2022-12-17T10:14:20;67.88;;;29.92;;
55539;SDS011;41384;51.418;7.286;2022-12-17T10:17:13;27.90;;;13.38;;
55539;SDS011;41384;51.418;7.286;2022-12-17T10:19:59;24.30;;;11.63;;
55539;SDS011;41384;51.418;7.286;2022-12-17T10:22:45;22.88;;;10.50;;
55539;SDS011;41384;51.418;7.286;2022-12-17T10:25:31;24.60;;;11.23;;
55539;SDS011;41384;51.418;7.286;2022-12-17T10:28:16;21.48;;;10.35;;
55539;SDS011;41384;51.418;7.286;2022-12-17T10:31:15;22.25;;;10.43;;
55539;SDS011;41384;51.418;7.286;2022-12-17T10:34:04;17.02;;;9.75;;
55539;SDS011;41384;51.418;7.286;2022-12-17T10:36:50;21.88;;;9.88;;
55539;SDS011;41384;51.418;7.286;2022-12-17T10:39:35;22.02;;;10.27;;
55539;SDS011;41384;51.418;7.286;2022-12-17T10:42:25;18.40;;;9.43;;
55539;SDS011;41384;51.418;7.286;2022-12-17T10:48:00;23.38;;;10.77;;
55539;SDS011;41384;51.418;7.286;2022-12-17T10:50:44;21.75;;;11.23;;
55539;SDS011;41384;51.418;7.286;2022-12-17T10:53:28;20.17;;;10.60;;
55539;SDS011;41384;51.418;7.286;2022-12-17T10:56:19;24.15;;;11.55;;
55539;SDS011;41384;51.418;7.286;2022-12-17T10:59:10;21.92;;;11.10;;
55539;SDS011;41384;51.418;7.286;2022-12-17T11:01:56;18.17;;;10.27;;
55539;SDS011;41384;51.418;7.286;2022-12-17T11:04:49;24.38;;;11.15;;
55539;SDS011;41384;51.418;7.286;2022-12-17T11:07:37;23.77;;;10.55;;
55539;SDS011;41384;51.418;7.286;2022-12-17T11:10:24;18.83;;;10.80;;
55539;SDS011;41384;51.418;7.286;2022-12-17T11:13:13;19.15;;;11.23;;
55539;SDS011;41384;51.418;7.286;2022-12-17T11:16:06;25.90;;;10.48;;
55539;SDS011;41384;51.418;7.286;2022-12-17T11:21:56;17.40;;;9.63;;
55539;SDS011;41384;51.418;7.286;2022-12-17T11:24:52;25.08;;;11.07;;
55539;SDS011;41384;51.418;7.286;2022-12-17T11:27:44;21.30;;;10.25;;
55539;SDS011;41384;51.418;7.286;2022-12-17T11:30:42;26.77;;;11.57;;
55539;SDS011;41384;51.418;7.286;2022-12-17T11:33:36;22.50;;;10.40;;
55539;SDS011;41384;51.418;7.286;2022-12-17T11:36:33;21.88;;;10.43;;
55539;SDS011;41384;51.418;7.286;2022-12-17T11:39:27;24.55;;;11.57;;
55539;SDS011;41384;51.418;7.286;2022-12-17T11:42:27;24.42;;;11.07;;
55539;SDS011;41384;51.418;7.286;2022-12-17T11:45:25;17.70;;;10.25;;
55539;SDS011;41384;51.418;7.286;2022-12-17T11:48:27;24.10;;;10.48;;
55539;SDS011;41384;51.418;7.286;2022-12-17T11:51:38;24.30;;;10.38;;
55539;SDS011;41384;51.418;7.286;2022-12-17T11:54:47;25.45;;;10.90;;
55539;SDS011;41384;51.418;7.286;2022-12-17T12:00:54;21.15;;;11.07;;
55539;SDS011;41384;51.418;7.286;2022-12-17T12:04:12;23.63;;;11.32;;
55539;SDS011;41384;51.418;7.286;2022-12-17T12:10:24;23.30;;;11.20;;
55539;SDS011;41384;51.418;7.286;2022-12-17T12:13:27;24.17;;;11.32;;
55539;SDS011;41384;51.418;7.286;2022-12-17T12:16:18;23.52;;;11.32;;
55539;SDS011;41384;51.418;7.286;2022-12-17T12:19:05;24.02;;;11.73;;
55539;SDS011;41384;51.418;7.286;2022-12-17T12:22:04;23.75;;;11.20;;
55539;SDS011;41384;51.418;7.286;2022-12-17T12:28:35;24.48;;;11.30;;
55539;SDS011;41384;51.418;7.286;2022-12-17T12:31:30;21.67;;;10.85;;
55539;SDS011;41384;51.418;7.286;2022-12-17T12:34:21;27.73;;;13.05;;
55539;SDS011;41384;51.418;7.286;2022-12-17T12:37:13;24.70;;;12.20;;
55539;SDS011;41384;51.418;7.286;2022-12-17T12:43:03;23.90;;;10.98;;
55539;SDS011;41384;51.418;7.286;2022-12-17T12:46:27;22.23;;;11.25;;
55539;SDS011;41384;51.418;7.286;2022-12-17T12:49:27;23.02;;;11.48;;
55539;SDS011;41384;51.418;7.286;2022-12-17T12:52:21;24.40;;;11.50;;
55539;SDS011;41384;51.418;7.286;2022-12-17T12:55:07;24.38;;;12.00;;
55539;SDS011;41384;51.418;7.286;2022-12-17T12:58:01;25.77;;;11.52;;
55539;SDS011;41384;51.418;7.286;2022-12-17T13:03:38;26.52;;;12.57;;
55539;SDS011;41384;51.418;7.286;2022-12-17T13:06:51;24.83;;;11.75;;
55539;SDS011;41384;51.418;7.286;2022-12-17T13:14:33;23.20;;;11.65;;
55539;SDS011;41384;51.418;7.286;2022-12-17T13:17:20;21.10;;;11.02;;
55539;SDS011;41384;51.418;7.286;2022-12-17T13:24:45;22.88;;;11.43;;
55539;SDS011;41384;51.418;7.286;2022-12-17T13:36:22;24.42;;;10.60;;
55539;SDS011;41384;51.418;7.286;2022-12-17T13:41:27;24.88;;;11.35;;
55539;SDS011;41384;51.418;7.286;2022-12-17T13:43:55;27.05;;;11.60;;
55539;SDS011;41384;51.418;7.286;2022-12-17T13:48:53;22.98;;;10.98;;
55539;SDS011;41384;51.418;7.286;2022-12-17T13:51:29;20.25;;;10.35;;
55539;SDS011;41384;51.418;7.286;2022-12-17T13:54:00;21.77;;;11.00;;
55539;SDS011;41384;51.418;7.286;2022-12-17T13:56:28;20.58;;;10.73;;
55539;SDS011;41384;51.418;7.286;2022-12-17T13:58:56;23.35;;;11.20;;
55539;SDS011;41384;51.418;7.286;2022-12-17T14:01:23;17.58;;;10.02;;
55539;SDS011;41384;51.418;7.286;2022-12-17T14:03:51;15.50;;;6.95;;
55539;SDS011;41384;51.418;7.286;2022-12-17T14:06:19;16.77;;;8.35;;
55539;SDS011;41384;51.418;7.286;2022-12-17T14:08:45;14.65;;;7.78;;
55539;SDS011;41384;51.418;7.286;2022-12-17T14:11:12;14.30;;;7.45;;
55539;SDS011;41384;51.418;7.286;2022-12-17T14:13:56;16.83;;;8.25;;
55539;SDS011;41384;51.418;7.286;2022-12-17T14:16:21;12.18;;;7.05;;
55539;SDS011;41384;51.418;7.286;2022-12-17T14:18:57;8.73;;;5.88;;
55539;SDS011;41384;51.418;7.286;2022-12-17T14:21:24;9.63;;;6.05;;
55539;SDS011;41384;51.418;7.286;2022-12-17T14:23:51;11.55;;;5.25;;
55539;SDS011;41384;51.418;7.286;2022-12-17T14:26:18;9.75;;;6.18;;
55539;SDS011;41384;51.418;7.286;2022-12-17T14:28:52;6.70;;;4.63;;
55539;SDS011;41384;51.418;7.286;2022-12-17T14:31:20;19.77;;;10.57;;
55539;SDS011;41384;51.418;7.286;2022-12-17T14:34:02;14.65;;;6.50;;
55539;SDS011;41384;51.418;7.286;2022-12-17T14:36:31;11.23;;;5.53;;
55539;SDS011;41384;51.418;7.286;2022-12-17T14:38:59;10.18;;;5.82;;
55539;SDS011;41384;51.418;7.286;2022-12-17T14:41:26;11.13;;;5.97;;
55539;SDS011;41384;51.418;7.286;2022-12-17T14:44:18;9.70;;;5.50;;
55539;SDS011;41384;51.418;7.286;2022-12-17T14:46:45;10.38;;;5.90;;
55539;SDS011;41384;51.418;7.286;2022-12-17T14:49:14;9.25;;;5.15;;
55539;SDS011;41384;51.418;7.286;2022-12-17T14:51:42;9.93;;;5.95;;
55539;SDS011;41384;51.418;7.286;2022-12-17T14:56:53;10.85;;;6.43;;
55539;SDS011;41384;51.418;7.286;2022-12-17T14:59:23;8.90;;;5.63;;
55539;SDS011;41384;51.418;7.286;2022-12-17T15:01:49;9.82;;;4.90;;
55539;SDS011;41384;51.418;7.286;2022-12-17T15:04:15;8.05;;;4.97;;
55539;SDS011;41384;51.418;7.286;2022-12-17T15:06:41;12.15;;;5.13;;
55539;SDS011;41384;51.418;7.286;2022-12-17T15:09:08;8.95;;;5.05;;
55539;SDS011;41384;51.418;7.286;2022-12-17T15:11:35;9.93;;;5.70;;
55539;SDS011;41384;51.418;7.286;2022-12-17T15:14:00;10.70;;;5.25;;
55539;SDS011;41384;51.418;7.286;2022-12-17T15:16:25;10.27;;;5.18;;
55539;SDS011;41384;51.418;7.286;2022-12-17T15:18:51;8.90;;;5.10;;
55539;SDS011;41384;51.418;7.286;2022-12-17T15:21:16;10.43;;;5.78;;
55539;SDS011;41384;51.418;7.286;2022-12-17T15:23:42;10.13;;;5.75;;
55539;SDS011;41384;51.418;7.286;2022-12-17T15:26:09;12.55;;;5.90;;
55539;SDS011;41384;51.418;7.286;2022-12-17T15:28:35;8.75;;;4.85;;
55539;SDS011;41384;51.418;7.286;2022-12-17T15:31:00;10.50;;;5.95;;
55539;SDS011;41384;51.418;7.286;2022-12-17T15:33:25;7.32;;;4.70;;
55539;SDS011;41384;51.418;7.286;2022-12-17T15:35:50;10.90;;;5.70;;
55539;SDS011;41384;51.418;7.286;2022-12-17T15:38:16;11.32;;;6.07;;
55539;SDS011;41384;51.418;7.286;2022-12-17T15:40:41;10.10;;;5.25;;
55539;SDS011;41384;51.418;7.286;2022-12-17T15:43:08;8.70;;;5.07;;
55539;SDS011;41384;51.418;7.286;2022-12-17T15:45:38;12.82;;;5.68;;
55539;SDS011;41384;51.418;7.286;2022-12-17T15:48:14;12.48;;;6.65;;
55539;SDS011;41384;51.418;7.286;2022-12-17T15:50:44;12.10;;;6.93;;
55539;SDS011;41384;51.418;7.286;2022-12-17T15:53:09;15.25;;;7.25;;
55539;SDS011;41384;51.418;7.286;2022-12-17T15:55:36;12.75;;;6.93;;
55539;SDS011;41384;51.418;7.286;2022-12-17T15:58:03;14.25;;;6.85;;
55539;SDS011;41384;51.418;7.286;2022-12-17T16:00:29;11.85;;;7.15;;
55539;SDS011;41384;51.418;7.286;2022-12-17T16:02:55;14.77;;;6.72;;
55539;SDS011;41384;51.418;7.286;2022-12-17T16:05:20;13.05;;;7.28;;
55539;SDS011;41384;51.418;7.286;2022-12-17T16:07:46;13.77;;;8.07;;
55539;SDS011;41384;51.418;7.286;2022-12-17T16:10:12;12.77;;;7.22;;
55539;SDS011;41384;51.418;7.286;2022-12-17T16:12:38;11.65;;;6.75;;
55539;SDS011;41384;51.418;7.286;2022-12-17T16:15:03;12.98;;;7.15;;
55539;SDS011;41384;51.418;7.286;2022-12-17T16:17:30;11.07;;;6.00;;
55539;SDS011;41384;51.418;7.286;2022-12-17T16:19:55;11.75;;;6.68;;
55539;SDS011;41384;51.418;7.286;2022-12-17T16:22:21;11.75;;;6.80;;
55539;SDS011;41384;51.418;7.286;2022-12-17T16:24:46;12.27;;;7.47;;
55539;SDS011;41384;51.418;7.286;2022-12-17T16:27:12;16.52;;;8.10;;
55539;SDS011;41384;51.418;7.286;2022-12-17T16:29:38;12.75;;;7.88;;
55539;SDS011;41384;51.418;7.286;2022-12-17T16:32:03;12.32;;;6.97;;
55539;SDS011;41384;51.418;7.286;2022-12-17T16:34:29;13.02;;;7.30;;
55539;SDS011;41384;51.418;7.286;2022-12-17T16:36:54;12.70;;;7.22;;
55539;SDS011;41384;51.418;7.286;2022-12-17T16:39:20;12.25;;;6.97;;
55539;SDS011;41384;51.418;7.286;2022-12-17T16:41:45;11.68;;;8.05;;
55539;SDS011;41384;51.418;7.286;2022-12-17T16:44:11;14.73;;;7.25;;
55539;SDS011;41384;51.418;7.286;2022-12-17T16:46:38;16.13;;;7.47;;
55539;SDS011;41384;51.418;7.286;2022-12-17T16:49:05;12.55;;;6.45;;
55539;SDS011;41384;51.418;7.286;2022-12-17T16:51:40;13.43;;;7.25;;
55539;SDS011;41384;51.418;7.286;2022-12-17T16:54:06;13.73;;;7.85;;
55539;SDS011;41384;51.418;7.286;2022-12-17T16:56:32;12.65;;;7.57;;
55539;SDS011;41384;51.418;7.286;2022-12-17T16:59:00;13.52;;;8.02;;
55539;SDS011;41384;51.418;7.286;2022-12-17T17:01:27;12.18;;;6.72;;
55539;SDS011;41384;51.418;7.286;2022-12-17T17:03:53;12.75;;;7.57;;
55539;SDS011;41384;51.418;7.286;2022-12-17T17:06:19;11.88;;;7.35;;
55539;SDS011;41384;51.418;7.286;2022-12-17T17:08:44;15.10;;;7.90;;
55539;SDS011;41384;51.418;7.286;2022-12-17T17:11:14;13.95;;;7.50;;
55539;SDS011;41384;51.418;7.286;2022-12-17T17:13:45;11.02;;;6.90;;